sensor_id;sensor_type;location;lat;lon;timestamp;temperature;humidity
24678;DHT22;12800;53.094;8.778;2023-09-19T00:01:23;18.90;81.10
24678;DHT22;12800;53.094;8.778;2023-09-19T00:03:49;18.90;81.20
24678;DHT22;12800;53.094;8.778;2023-09-19T00:06:15;18.90;81.20
24678;DHT22;12800;53.094;8.778;2023-09-19T00:08:41;18.90;81.40
24678;DHT22;12800;53.094;8.778;2023-09-19T00:11:09;18.90;81.30
24678;DHT22;12800;53.094;8.778;2023-09-19T00:13:36;18.90;82.20
24678;DHT22;12800;53.094;8.778;2023-09-19T00:16:11;18.90;81.40
24678;DHT22;12800;53.094;8.778;2023-09-19T00:18:38;18.90;81.50
24678;DHT22;12800;53.094;8.778;2023-09-19T00:21:03;18.80;81.60
24678;DHT22;12800;53.094;8.778;2023-09-19T00:23:33;18.80;81.50
24678;DHT22;12800;53.094;8.778;2023-09-19T00:26:01;18.80;81.60
24678;DHT22;12800;53.094;8.778;2023-09-19T00:28:27;18.90;81.70
24678;DHT22;12800;53.094;8.778;2023-09-19T00:30:54;18.90;81.80
24678;DHT22;12800;53.094;8.778;2023-09-19T00:33:20;18.90;81.80
24678;DHT22;12800;53.094;8.778;2023-09-19T00:35:50;18.90;81.70
24678;DHT22;12800;53.094;8.778;2023-09-19T00:38:15;18.90;81.70
24678;DHT22;12800;53.094;8.778;2023-09-19T00:40:46;18.90;81.80
24678;DHT22;12800;53.094;8.778;2023-09-19T00:43:11;18.90;82.00
24678;DHT22;12800;53.094;8.778;2023-09-19T00:45:38;18.90;83.00
24678;DHT22;12800;53.094;8.778;2023-09-19T00:48:08;19.00;82.20
24678;DHT22;12800;53.094;8.778;2023-09-19T00:50:35;18.90;82.10
24678;DHT22;12800;53.094;8.778;2023-09-19T00:53:01;19.00;82.00
24678;DHT22;12800;53.094;8.778;2023-09-19T00:55:31;18.90;81.80
24678;DHT22;12800;53.094;8.778;2023-09-19T00:57:58;18.90;81.80
24678;DHT22;12800;53.094;8.778;2023-09-19T01:00:24;18.90;81.60
24678;DHT22;12800;53.094;8.778;2023-09-19T01:02:50;18.90;81.60
24678;DHT22;12800;53.094;8.778;2023-09-19T01:05:15;18.90;81.50
24678;DHT22;12800;53.094;8.778;2023-09-19T01:07:42;18.80;81.30
24678;DHT22;12800;53.094;8.778;2023-09-19T01:10:11;18.80;81.30
24678;DHT22;12800;53.094;8.778;2023-09-19T01:23:23;18.80;81.60
24678;DHT22;12800;53.094;8.778;2023-09-19T01:26:06;18.80;81.80
24678;DHT22;12800;53.094;8.778;2023-09-19T01:28:53;18.80;82.10
24678;DHT22;12800;53.094;8.778;2023-09-19T01:31:31;18.80;82.20
24678;DHT22;12800;53.094;8.778;2023-09-19T01:34:02;18.70;82.00
24678;DHT22;12800;53.094;8.778;2023-09-19T01:36:34;18.70;81.70
24678;DHT22;12800;53.094;8.778;2023-09-19T01:39:06;18.60;81.50
24678;DHT22;12800;53.094;8.778;2023-09-19T01:44:59;18.40;80.80
24678;DHT22;12800;53.094;8.778;2023-09-19T01:47:37;18.40;80.50
24678;DHT22;12800;53.094;8.778;2023-09-19T01:52:31;18.20;81.00
24678;DHT22;12800;53.094;8.778;2023-09-19T01:55:06;18.20;80.10
24678;DHT22;12800;53.094;8.778;2023-09-19T02:00:21;18.10;80.00
24678;DHT22;12800;53.094;8.778;2023-09-19T02:02:47;18.10;80.00
24678;DHT22;12800;53.094;8.778;2023-09-19T02:05:13;18.00;79.50
24678;DHT22;12800;53.094;8.778;2023-09-19T02:07:47;18.00;79.60
24678;DHT22;12800;53.094;8.778;2023-09-19T02:10:13;18.00;79.40
24678;DHT22;12800;53.094;8.778;2023-09-19T02:12:39;17.90;79.00
24678;DHT22;12800;53.094;8.778;2023-09-19T02:15:05;17.90;78.80
24678;DHT22;12800;53.094;8.778;2023-09-19T02:17:32;17.80;78.70
24678;DHT22;12800;53.094;8.778;2023-09-19T02:19:58;17.80;78.60
24678;DHT22;12800;53.094;8.778;2023-09-19T02:22:27;17.80;78.50
24678;DHT22;12800;53.094;8.778;2023-09-19T02:24:53;17.80;78.40
24678;DHT22;12800;53.094;8.778;2023-09-19T02:27:19;17.70;78.30
24678;DHT22;12800;53.094;8.778;2023-09-19T02:29:45;17.70;78.40
24678;DHT22;12800;53.094;8.778;2023-09-19T02:32:10;17.70;78.30
24678;DHT22;12800;53.094;8.778;2023-09-19T02:34:37;17.70;78.30
24678;DHT22;12800;53.094;8.778;2023-09-19T02:37:07;17.60;78.20
24678;DHT22;12800;53.094;8.778;2023-09-19T02:39:38;17.60;78.30
24678;DHT22;12800;53.094;8.778;2023-09-19T02:42:04;17.60;78.30
24678;DHT22;12800;53.094;8.778;2023-09-19T02:44:30;17.60;78.30
24678;DHT22;12800;53.094;8.778;2023-09-19T02:46:56;17.60;78.40
24678;DHT22;12800;53.094;8.778;2023-09-19T02:49:23;17.60;78.40
24678;DHT22;12800;53.094;8.778;2023-09-19T02:51:49;17.60;78.50
24678;DHT22;12800;53.094;8.778;2023-09-19T02:54:15;17.60;78.40
24678;DHT22;12800;53.094;8.778;2023-09-19T02:56:53;17.50;78.50
24678;DHT22;12800;53.094;8.778;2023-09-19T02:59:19;17.50;78.40
24678;DHT22;12800;53.094;8.778;2023-09-19T03:01:45;17.50;78.40
24678;DHT22;12800;53.094;8.778;2023-09-19T03:04:14;17.50;78.50
24678;DHT22;12800;53.094;8.778;2023-09-19T03:06:45;17.50;78.60
24678;DHT22;12800;53.094;8.778;2023-09-19T03:09:11;17.50;78.60
24678;DHT22;12800;53.094;8.778;2023-09-19T03:11:39;17.40;78.70
24678;DHT22;12800;53.094;8.778;2023-09-19T03:14:07;17.40;78.80
24678;DHT22;12800;53.094;8.778;2023-09-19T03:16:33;17.30;78.90
24678;DHT22;12800;53.094;8.778;2023-09-19T03:18:58;17.30;79.00
24678;DHT22;12800;53.094;8.778;2023-09-19T03:21:25;17.20;79.20
24678;DHT22;12800;53.094;8.778;2023-09-19T03:24:00;17.20;79.40
24678;DHT22;12800;53.094;8.778;2023-09-19T03:26:25;17.20;79.40
24678;DHT22;12800;53.094;8.778;2023-09-19T03:28:51;17.20;79.60
24678;DHT22;12800;53.094;8.778;2023-09-19T03:31:17;17.10;79.60
24678;DHT22;12800;53.094;8.778;2023-09-19T03:33:43;17.10;79.80
24678;DHT22;12800;53.094;8.778;2023-09-19T03:36:08;17.10;79.90
24678;DHT22;12800;53.094;8.778;2023-09-19T03:38:34;17.10;80.00
24678;DHT22;12800;53.094;8.778;2023-09-19T03:41:01;17.10;80.00
24678;DHT22;12800;53.094;8.778;2023-09-19T03:43:27;17.00;80.10
24678;DHT22;12800;53.094;8.778;2023-09-19T03:45:53;17.00;80.10
24678;DHT22;12800;53.094;8.778;2023-09-19T03:48:22;17.00;80.20
24678;DHT22;12800;53.094;8.778;2023-09-19T03:50:48;16.90;80.10
24678;DHT22;12800;53.094;8.778;2023-09-19T03:53:14;16.90;80.30
24678;DHT22;12800;53.094;8.778;2023-09-19T03:55:39;16.90;80.30
24678;DHT22;12800;53.094;8.778;2023-09-19T03:58:05;16.90;80.30
24678;DHT22;12800;53.094;8.778;2023-09-19T04:00:31;16.90;80.30
24678;DHT22;12800;53.094;8.778;2023-09-19T04:02:57;16.90;80.30
24678;DHT22;12800;53.094;8.778;2023-09-19T04:05:23;16.80;80.40
24678;DHT22;12800;53.094;8.778;2023-09-19T04:07:49;16.80;80.40
24678;DHT22;12800;53.094;8.778;2023-09-19T04:10:16;16.80;80.40
24678;DHT22;12800;53.094;8.778;2023-09-19T04:12:53;16.80;80.40
24678;DHT22;12800;53.094;8.778;2023-09-19T04:15:20;16.80;80.20
24678;DHT22;12800;53.094;8.778;2023-09-19T04:17:48;16.80;80.10
24678;DHT22;12800;53.094;8.778;2023-09-19T04:20:13;16.80;80.00
24678;DHT22;12800;53.094;8.778;2023-09-19T04:22:39;16.80;79.90
24678;DHT22;12800;53.094;8.778;2023-09-19T04:25:05;16.70;79.90
24678;DHT22;12800;53.094;8.778;2023-09-19T04:27:34;16.70;79.90
24678;DHT22;12800;53.094;8.778;2023-09-19T04:30:00;16.70;79.90
24678;DHT22;12800;53.094;8.778;2023-09-19T04:32:29;16.70;80.00
24678;DHT22;12800;53.094;8.778;2023-09-19T04:34:55;16.70;80.00
24678;DHT22;12800;53.094;8.778;2023-09-19T04:37:25;16.70;80.00
24678;DHT22;12800;53.094;8.778;2023-09-19T04:39:51;16.70;80.00
24678;DHT22;12800;53.094;8.778;2023-09-19T04:42:16;16.70;80.10
24678;DHT22;12800;53.094;8.778;2023-09-19T04:44:43;16.70;80.00
24678;DHT22;12800;53.094;8.778;2023-09-19T04:47:09;16.70;80.20
24678;DHT22;12800;53.094;8.778;2023-09-19T04:49:34;16.70;80.00
24678;DHT22;12800;53.094;8.778;2023-09-19T04:52:00;16.70;80.00
24678;DHT22;12800;53.094;8.778;2023-09-19T04:54:26;16.70;80.10
24678;DHT22;12800;53.094;8.778;2023-09-19T04:56:52;16.70;80.10
24678;DHT22;12800;53.094;8.778;2023-09-19T04:59:18;16.70;80.10
24678;DHT22;12800;53.094;8.778;2023-09-19T05:01:43;16.70;80.10
24678;DHT22;12800;53.094;8.778;2023-09-19T05:04:09;16.70;80.10
24678;DHT22;12800;53.094;8.778;2023-09-19T05:06:35;16.70;80.20
24678;DHT22;12800;53.094;8.778;2023-09-19T05:09:01;16.70;80.30
24678;DHT22;12800;53.094;8.778;2023-09-19T05:11:30;16.70;80.30
24678;DHT22;12800;53.094;8.778;2023-09-19T05:13:55;16.70;80.20
24678;DHT22;12800;53.094;8.778;2023-09-19T05:16:21;16.70;80.40
24678;DHT22;12800;53.094;8.778;2023-09-19T05:18:47;16.70;80.40
24678;DHT22;12800;53.094;8.778;2023-09-19T05:21:13;16.70;80.30
24678;DHT22;12800;53.094;8.778;2023-09-19T05:23:38;16.70;80.40
24678;DHT22;12800;53.094;8.778;2023-09-19T05:26:04;16.80;80.40
24678;DHT22;12800;53.094;8.778;2023-09-19T05:28:30;16.80;80.40
24678;DHT22;12800;53.094;8.778;2023-09-19T05:31:00;16.80;80.40
24678;DHT22;12800;53.094;8.778;2023-09-19T05:33:27;16.80;80.30
24678;DHT22;12800;53.094;8.778;2023-09-19T05:35:52;16.80;80.40
24678;DHT22;12800;53.094;8.778;2023-09-19T05:38:19;16.80;80.50
24678;DHT22;12800;53.094;8.778;2023-09-19T05:40:46;16.80;80.40
24678;DHT22;12800;53.094;8.778;2023-09-19T05:43:12;16.90;80.40
24678;DHT22;12800;53.094;8.778;2023-09-19T05:45:39;16.90;80.40
24678;DHT22;12800;53.094;8.778;2023-09-19T05:48:10;16.90;80.30
24678;DHT22;12800;53.094;8.778;2023-09-19T05:50:37;17.00;80.20
24678;DHT22;12800;53.094;8.778;2023-09-19T05:53:03;17.00;80.30
24678;DHT22;12800;53.094;8.778;2023-09-19T05:55:33;17.00;80.30
24678;DHT22;12800;53.094;8.778;2023-09-19T05:57:59;17.10;80.20
24678;DHT22;12800;53.094;8.778;2023-09-19T06:00:25;17.10;80.20
24678;DHT22;12800;53.094;8.778;2023-09-19T06:02:56;17.10;80.10
24678;DHT22;12800;53.094;8.778;2023-09-19T06:05:23;17.10;80.00
24678;DHT22;12800;53.094;8.778;2023-09-19T06:07:49;17.20;80.00
24678;DHT22;12800;53.094;8.778;2023-09-19T06:10:16;17.20;80.00
24678;DHT22;12800;53.094;8.778;2023-09-19T06:12:43;17.20;79.90
24678;DHT22;12800;53.094;8.778;2023-09-19T06:15:13;17.30;80.00
24678;DHT22;12800;53.094;8.778;2023-09-19T06:17:54;17.30;79.80
24678;DHT22;12800;53.094;8.778;2023-09-19T06:20:20;17.30;79.50
24678;DHT22;12800;53.094;8.778;2023-09-19T06:22:48;17.30;79.50
24678;DHT22;12800;53.094;8.778;2023-09-19T06:25:14;17.30;79.30
24678;DHT22;12800;53.094;8.778;2023-09-19T06:27:45;17.40;79.30
24678;DHT22;12800;53.094;8.778;2023-09-19T06:30:11;17.40;79.30
24678;DHT22;12800;53.094;8.778;2023-09-19T06:32:37;17.40;79.10
24678;DHT22;12800;53.094;8.778;2023-09-19T06:35:03;17.40;79.10
24678;DHT22;12800;53.094;8.778;2023-09-19T06:37:29;17.40;78.80
24678;DHT22;12800;53.094;8.778;2023-09-19T06:39:55;17.50;78.90
24678;DHT22;12800;53.094;8.778;2023-09-19T06:42:21;17.50;78.70
24678;DHT22;12800;53.094;8.778;2023-09-19T06:44:48;17.50;78.40
24678;DHT22;12800;53.094;8.778;2023-09-19T06:47:14;17.50;79.00
24678;DHT22;12800;53.094;8.778;2023-09-19T06:49:41;17.60;78.10
24678;DHT22;12800;53.094;8.778;2023-09-19T06:52:09;17.60;77.80
24678;DHT22;12800;53.094;8.778;2023-09-19T06:54:35;17.60;77.60
24678;DHT22;12800;53.094;8.778;2023-09-19T06:57:01;17.60;77.50
24678;DHT22;12800;53.094;8.778;2023-09-19T06:59:27;17.60;77.30
24678;DHT22;12800;53.094;8.778;2023-09-19T07:01:53;17.60;78.00
24678;DHT22;12800;53.094;8.778;2023-09-19T07:04:18;17.60;76.90
24678;DHT22;12800;53.094;8.778;2023-09-19T07:06:49;17.70;77.10
24678;DHT22;12800;53.094;8.778;2023-09-19T07:09:15;17.70;76.70
24678;DHT22;12800;53.094;8.778;2023-09-19T07:11:41;17.70;76.60
24678;DHT22;12800;53.094;8.778;2023-09-19T07:14:08;17.70;76.30
24678;DHT22;12800;53.094;8.778;2023-09-19T07:16:37;17.80;76.30
24678;DHT22;12800;53.094;8.778;2023-09-19T07:19:04;17.80;76.20
24678;DHT22;12800;53.094;8.778;2023-09-19T07:21:30;17.80;76.00
24678;DHT22;12800;53.094;8.778;2023-09-19T07:23:59;17.80;75.90
24678;DHT22;12800;53.094;8.778;2023-09-19T07:26:26;17.90;76.50
24678;DHT22;12800;53.094;8.778;2023-09-19T07:28:52;17.90;75.60
24678;DHT22;12800;53.094;8.778;2023-09-19T07:31:18;18.00;75.20
24678;DHT22;12800;53.094;8.778;2023-09-19T07:33:44;18.00;75.00
24678;DHT22;12800;53.094;8.778;2023-09-19T07:36:11;18.00;74.90
24678;DHT22;12800;53.094;8.778;2023-09-19T07:38:39;18.10;74.90
24678;DHT22;12800;53.094;8.778;2023-09-19T07:41:04;18.10;74.50
24678;DHT22;12800;53.094;8.778;2023-09-19T07:43:30;18.10;74.50
24678;DHT22;12800;53.094;8.778;2023-09-19T07:45:57;18.20;74.20
24678;DHT22;12800;53.094;8.778;2023-09-19T07:48:22;18.20;74.10
24678;DHT22;12800;53.094;8.778;2023-09-19T07:50:49;18.30;74.40
24678;DHT22;12800;53.094;8.778;2023-09-19T07:53:15;18.40;74.50
24678;DHT22;12800;53.094;8.778;2023-09-19T07:55:42;18.50;74.10
24678;DHT22;12800;53.094;8.778;2023-09-19T07:58:09;18.50;73.50
24678;DHT22;12800;53.094;8.778;2023-09-19T08:00:34;18.60;73.50
24678;DHT22;12800;53.094;8.778;2023-09-19T08:03:00;18.60;72.90
24678;DHT22;12800;53.094;8.778;2023-09-19T08:05:26;18.60;72.60
24678;DHT22;12800;53.094;8.778;2023-09-19T08:07:53;18.60;72.40
24678;DHT22;12800;53.094;8.778;2023-09-19T08:10:21;18.70;72.30
24678;DHT22;12800;53.094;8.778;2023-09-19T08:12:48;18.70;72.10
24678;DHT22;12800;53.094;8.778;2023-09-19T08:15:19;18.80;72.10
24678;DHT22;12800;53.094;8.778;2023-09-19T08:17:48;18.90;71.90
24678;DHT22;12800;53.094;8.778;2023-09-19T08:20:14;19.00;71.50
24678;DHT22;12800;53.094;8.778;2023-09-19T08:22:49;19.00;71.20
24678;DHT22;12800;53.094;8.778;2023-09-19T08:25:15;19.10;70.70
24678;DHT22;12800;53.094;8.778;2023-09-19T08:27:47;19.10;70.60
24678;DHT22;12800;53.094;8.778;2023-09-19T08:30:15;19.20;70.30
24678;DHT22;12800;53.094;8.778;2023-09-19T08:32:40;19.20;70.30
24678;DHT22;12800;53.094;8.778;2023-09-19T08:35:08;19.20;70.00
24678;DHT22;12800;53.094;8.778;2023-09-19T08:37:35;19.20;69.70
24678;DHT22;12800;53.094;8.778;2023-09-19T08:40:00;19.20;69.70
24678;DHT22;12800;53.094;8.778;2023-09-19T08:42:26;19.20;69.70
24678;DHT22;12800;53.094;8.778;2023-09-19T08:44:52;19.20;70.00
24678;DHT22;12800;53.094;8.778;2023-09-19T08:47:32;19.20;69.70
24678;DHT22;12800;53.094;8.778;2023-09-19T08:50:07;19.20;69.70
24678;DHT22;12800;53.094;8.778;2023-09-19T08:52:43;19.30;69.80
24678;DHT22;12800;53.094;8.778;2023-09-19T08:55:13;19.40;69.60
24678;DHT22;12800;53.094;8.778;2023-09-19T08:57:40;19.40;69.40
24678;DHT22;12800;53.094;8.778;2023-09-19T09:00:08;19.40;69.00
24678;DHT22;12800;53.094;8.778;2023-09-19T09:02:39;19.50;68.80
24678;DHT22;12800;53.094;8.778;2023-09-19T09:05:09;19.50;68.70
24678;DHT22;12800;53.094;8.778;2023-09-19T09:07:40;19.50;68.30
24678;DHT22;12800;53.094;8.778;2023-09-19T09:10:06;19.50;68.40
24678;DHT22;12800;53.094;8.778;2023-09-19T09:12:34;19.50;68.40
24678;DHT22;12800;53.094;8.778;2023-09-19T09:15:02;19.50;68.20
24678;DHT22;12800;53.094;8.778;2023-09-19T09:17:29;19.50;68.10
24678;DHT22;12800;53.094;8.778;2023-09-19T09:19:55;19.50;67.70
24678;DHT22;12800;53.094;8.778;2023-09-19T09:22:21;19.50;67.80
24678;DHT22;12800;53.094;8.778;2023-09-19T09:24:59;19.60;67.70
24678;DHT22;12800;53.094;8.778;2023-09-19T09:27:27;19.60;67.60
24678;DHT22;12800;53.094;8.778;2023-09-19T09:29:53;19.60;67.70
24678;DHT22;12800;53.094;8.778;2023-09-19T09:32:24;19.60;67.40
24678;DHT22;12800;53.094;8.778;2023-09-19T09:34:55;19.60;66.60
24678;DHT22;12800;53.094;8.778;2023-09-19T09:37:22;19.70;66.70
24678;DHT22;12800;53.094;8.778;2023-09-19T09:39:54;19.70;66.50
24678;DHT22;12800;53.094;8.778;2023-09-19T09:45:21;19.80;65.60
24678;DHT22;12800;53.094;8.778;2023-09-19T09:48:16;19.80;65.30
24678;DHT22;12800;53.094;8.778;2023-09-19T09:50:56;19.90;65.20
24678;DHT22;12800;53.094;8.778;2023-09-19T09:53:28;19.90;65.00
24678;DHT22;12800;53.094;8.778;2023-09-19T09:58:24;20.10;64.80
24678;DHT22;12800;53.094;8.778;2023-09-19T10:00:56;20.10;64.70
24678;DHT22;12800;53.094;8.778;2023-09-19T10:03:38;20.20;64.80
24678;DHT22;12800;53.094;8.778;2023-09-19T10:06:10;20.30;64.30
24678;DHT22;12800;53.094;8.778;2023-09-19T10:09:08;20.30;64.90
24678;DHT22;12800;53.094;8.778;2023-09-19T10:11:47;20.30;64.00
24678;DHT22;12800;53.094;8.778;2023-09-19T10:14:17;20.30;63.80
24678;DHT22;12800;53.094;8.778;2023-09-19T10:16:47;20.30;63.90
24678;DHT22;12800;53.094;8.778;2023-09-19T10:19:17;20.20;63.40
24678;DHT22;12800;53.094;8.778;2023-09-19T10:21:47;20.10;63.50
24678;DHT22;12800;53.094;8.778;2023-09-19T10:24:15;20.10;63.40
24678;DHT22;12800;53.094;8.778;2023-09-19T10:26:42;20.00;63.60
24678;DHT22;12800;53.094;8.778;2023-09-19T10:29:09;20.00;63.70
24678;DHT22;12800;53.094;8.778;2023-09-19T10:31:37;20.00;63.80
24678;DHT22;12800;53.094;8.778;2023-09-19T10:34:06;20.00;64.10
24678;DHT22;12800;53.094;8.778;2023-09-19T10:36:36;20.00;63.90
24678;DHT22;12800;53.094;8.778;2023-09-19T10:39:04;20.10;64.00
24678;DHT22;12800;53.094;8.778;2023-09-19T10:41:32;20.10;64.00
24678;DHT22;12800;53.094;8.778;2023-09-19T10:44:03;20.20;63.60
24678;DHT22;12800;53.094;8.778;2023-09-19T10:46:32;20.30;63.50
24678;DHT22;12800;53.094;8.778;2023-09-19T10:49:01;20.30;64.30
24678;DHT22;12800;53.094;8.778;2023-09-19T10:51:40;20.40;63.30
24678;DHT22;12800;53.094;8.778;2023-09-19T10:54:10;20.50;63.20
24678;DHT22;12800;53.094;8.778;2023-09-19T10:56:43;20.60;63.20
24678;DHT22;12800;53.094;8.778;2023-09-19T10:59:16;20.60;63.20
24678;DHT22;12800;53.094;8.778;2023-09-19T11:04:24;20.60;62.20
24678;DHT22;12800;53.094;8.778;2023-09-19T11:07:19;20.60;62.10
24678;DHT22;12800;53.094;8.778;2023-09-19T11:09:52;20.60;62.20
24678;DHT22;12800;53.094;8.778;2023-09-19T11:15:01;20.60;62.80
24678;DHT22;12800;53.094;8.778;2023-09-19T11:17:43;20.60;62.60
24678;DHT22;12800;53.094;8.778;2023-09-19T11:28:27;20.60;60.90
24678;DHT22;12800;53.094;8.778;2023-09-19T11:30:53;20.60;60.60
24678;DHT22;12800;53.094;8.778;2023-09-19T11:33:29;20.70;60.70
24678;DHT22;12800;53.094;8.778;2023-09-19T11:36:14;20.70;60.50
24678;DHT22;12800;53.094;8.778;2023-09-19T11:49:29;20.70;59.90
24678;DHT22;12800;53.094;8.778;2023-09-19T11:51:59;20.70;60.20
24678;DHT22;12800;53.094;8.778;2023-09-19T11:54:31;20.80;60.30
24678;DHT22;12800;53.094;8.778;2023-09-19T11:56:58;20.80;59.90
24678;DHT22;12800;53.094;8.778;2023-09-19T11:59:35;20.80;59.90
24678;DHT22;12800;53.094;8.778;2023-09-19T12:02:05;20.90;59.80
24678;DHT22;12800;53.094;8.778;2023-09-19T12:04:39;21.00;59.50
24678;DHT22;12800;53.094;8.778;2023-09-19T12:07:16;21.00;59.30
24678;DHT22;12800;53.094;8.778;2023-09-19T12:09:47;21.00;59.10
24678;DHT22;12800;53.094;8.778;2023-09-19T12:12:26;21.00;59.10
24678;DHT22;12800;53.094;8.778;2023-09-19T12:15:01;21.00;59.10
24678;DHT22;12800;53.094;8.778;2023-09-19T12:17:39;21.00;59.10
24678;DHT22;12800;53.094;8.778;2023-09-19T12:20:08;21.00;59.00
24678;DHT22;12800;53.094;8.778;2023-09-19T12:22:46;21.10;59.20
24678;DHT22;12800;53.094;8.778;2023-09-19T12:25:15;21.10;59.60
24678;DHT22;12800;53.094;8.778;2023-09-19T12:27:49;21.10;58.80
24678;DHT22;12800;53.094;8.778;2023-09-19T12:30:19;21.10;58.70
24678;DHT22;12800;53.094;8.778;2023-09-19T12:32:46;21.10;58.50
24678;DHT22;12800;53.094;8.778;2023-09-19T12:35:31;21.10;58.30
24678;DHT22;12800;53.094;8.778;2023-09-19T12:38:01;21.10;58.20
24678;DHT22;12800;53.094;8.778;2023-09-19T12:40:28;21.20;58.40
24678;DHT22;12800;53.094;8.778;2023-09-19T12:42:59;21.30;58.60
24678;DHT22;12800;53.094;8.778;2023-09-19T12:45:25;21.40;58.40
24678;DHT22;12800;53.094;8.778;2023-09-19T12:51:10;21.50;58.30
24678;DHT22;12800;53.094;8.778;2023-09-19T12:56:14;21.60;58.00
24678;DHT22;12800;53.094;8.778;2023-09-19T12:58:57;21.60;58.00
24678;DHT22;12800;53.094;8.778;2023-09-19T13:01:26;21.70;57.90
24678;DHT22;12800;53.094;8.778;2023-09-19T13:04:30;21.80;58.10
24678;DHT22;12800;53.094;8.778;2023-09-19T13:06:59;21.90;58.00
24678;DHT22;12800;53.094;8.778;2023-09-19T13:09:27;22.00;57.80
24678;DHT22;12800;53.094;8.778;2023-09-19T13:12:04;22.10;57.80
24678;DHT22;12800;53.094;8.778;2023-09-19T13:14:33;22.10;57.60
24678;DHT22;12800;53.094;8.778;2023-09-19T13:17:09;22.00;57.60
24678;DHT22;12800;53.094;8.778;2023-09-19T13:19:50;22.00;57.60
24678;DHT22;12800;53.094;8.778;2023-09-19T13:22:42;22.00;57.90
24678;DHT22;12800;53.094;8.778;2023-09-19T13:25:10;22.10;58.10
24678;DHT22;12800;53.094;8.778;2023-09-19T13:27:48;22.20;58.30
24678;DHT22;12800;53.094;8.778;2023-09-19T13:30:18;22.30;58.10
24678;DHT22;12800;53.094;8.778;2023-09-19T13:32:44;22.40;57.80
24678;DHT22;12800;53.094;8.778;2023-09-19T13:35:15;22.50;57.50
24678;DHT22;12800;53.094;8.778;2023-09-19T13:37:41;22.50;57.30
24678;DHT22;12800;53.094;8.778;2023-09-19T13:40:12;22.50;57.40
24678;DHT22;12800;53.094;8.778;2023-09-19T13:42:39;22.60;57.40
24678;DHT22;12800;53.094;8.778;2023-09-19T13:45:06;22.60;57.30
24678;DHT22;12800;53.094;8.778;2023-09-19T13:47:37;22.70;57.30
24678;DHT22;12800;53.094;8.778;2023-09-19T13:50:04;22.70;57.10
24678;DHT22;12800;53.094;8.778;2023-09-19T13:52:30;22.80;57.20
24678;DHT22;12800;53.094;8.778;2023-09-19T13:54:57;22.80;57.30
24678;DHT22;12800;53.094;8.778;2023-09-19T13:57:23;22.80;57.00
24678;DHT22;12800;53.094;8.778;2023-09-19T13:59:49;22.80;56.80
24678;DHT22;12800;53.094;8.778;2023-09-19T14:02:15;22.80;56.80
24678;DHT22;12800;53.094;8.778;2023-09-19T14:04:44;22.70;56.80
24678;DHT22;12800;53.094;8.778;2023-09-19T14:07:09;22.70;56.90
24678;DHT22;12800;53.094;8.778;2023-09-19T14:09:36;22.70;56.80
24678;DHT22;12800;53.094;8.778;2023-09-19T14:12:02;22.70;56.80
24678;DHT22;12800;53.094;8.778;2023-09-19T14:14:28;22.80;56.90
24678;DHT22;12800;53.094;8.778;2023-09-19T14:16:53;22.80;56.60
24678;DHT22;12800;53.094;8.778;2023-09-19T14:19:20;22.70;56.70
24678;DHT22;12800;53.094;8.778;2023-09-19T14:21:46;22.70;56.80
24678;DHT22;12800;53.094;8.778;2023-09-19T14:24:17;22.80;56.90
24678;DHT22;12800;53.094;8.778;2023-09-19T14:26:43;22.70;56.90
24678;DHT22;12800;53.094;8.778;2023-09-19T14:29:09;22.60;57.60
24678;DHT22;12800;53.094;8.778;2023-09-19T14:31:40;22.50;57.00
24678;DHT22;12800;53.094;8.778;2023-09-19T14:34:06;22.40;57.00
24678;DHT22;12800;53.094;8.778;2023-09-19T14:36:32;22.30;57.80
24678;DHT22;12800;53.094;8.778;2023-09-19T14:38:59;22.30;57.50
24678;DHT22;12800;53.094;8.778;2023-09-19T14:41:25;22.20;57.40
24678;DHT22;12800;53.094;8.778;2023-09-19T14:43:54;22.20;57.50
24678;DHT22;12800;53.094;8.778;2023-09-19T14:46:23;22.20;57.70
24678;DHT22;12800;53.094;8.778;2023-09-19T14:48:51;22.20;57.70
24678;DHT22;12800;53.094;8.778;2023-09-19T14:51:17;22.30;57.80
24678;DHT22;12800;53.094;8.778;2023-09-19T14:53:44;22.30;57.90
24678;DHT22;12800;53.094;8.778;2023-09-19T14:56:11;22.20;57.70
24678;DHT22;12800;53.094;8.778;2023-09-19T14:58:37;22.20;57.80
24678;DHT22;12800;53.094;8.778;2023-09-19T15:01:11;22.10;57.90
24678;DHT22;12800;53.094;8.778;2023-09-19T15:03:38;22.00;57.80
24678;DHT22;12800;53.094;8.778;2023-09-19T15:06:11;21.90;57.90
24678;DHT22;12800;53.094;8.778;2023-09-19T15:08:40;21.90;58.20
24678;DHT22;12800;53.094;8.778;2023-09-19T15:11:11;21.80;58.40
24678;DHT22;12800;53.094;8.778;2023-09-19T15:13:38;21.80;58.60
24678;DHT22;12800;53.094;8.778;2023-09-19T15:16:05;21.80;58.50
24678;DHT22;12800;53.094;8.778;2023-09-19T15:18:34;21.80;58.50
24678;DHT22;12800;53.094;8.778;2023-09-19T15:21:03;21.80;58.60
24678;DHT22;12800;53.094;8.778;2023-09-19T15:23:33;21.70;58.70
24678;DHT22;12800;53.094;8.778;2023-09-19T15:26:03;21.60;58.90
24678;DHT22;12800;53.094;8.778;2023-09-19T15:28:29;21.50;59.20
24678;DHT22;12800;53.094;8.778;2023-09-19T15:31:10;21.50;59.40
24678;DHT22;12800;53.094;8.778;2023-09-19T15:33:36;21.40;59.60
24678;DHT22;12800;53.094;8.778;2023-09-19T15:36:02;21.30;59.60
24678;DHT22;12800;53.094;8.778;2023-09-19T15:38:29;21.30;59.90
24678;DHT22;12800;53.094;8.778;2023-09-19T15:40:57;21.30;60.50
24678;DHT22;12800;53.094;8.778;2023-09-19T15:43:23;21.30;60.20
24678;DHT22;12800;53.094;8.778;2023-09-19T15:45:49;21.30;60.20
24678;DHT22;12800;53.094;8.778;2023-09-19T15:48:15;21.30;60.20
24678;DHT22;12800;53.094;8.778;2023-09-19T15:50:41;21.30;60.20
24678;DHT22;12800;53.094;8.778;2023-09-19T15:53:07;21.20;60.10
24678;DHT22;12800;53.094;8.778;2023-09-19T15:55:39;21.20;60.20
24678;DHT22;12800;53.094;8.778;2023-09-19T15:58:08;21.10;60.40
24678;DHT22;12800;53.094;8.778;2023-09-19T16:00:35;21.00;60.50
24678;DHT22;12800;53.094;8.778;2023-09-19T16:03:05;21.00;60.60
24678;DHT22;12800;53.094;8.778;2023-09-19T16:05:37;21.00;61.00
24678;DHT22;12800;53.094;8.778;2023-09-19T16:08:05;21.00;61.00
24678;DHT22;12800;53.094;8.778;2023-09-19T16:10:35;21.00;61.20
24678;DHT22;12800;53.094;8.778;2023-09-19T16:13:02;21.00;61.20
24678;DHT22;12800;53.094;8.778;2023-09-19T16:15:29;21.00;61.20
24678;DHT22;12800;53.094;8.778;2023-09-19T16:17:54;21.00;61.10
24678;DHT22;12800;53.094;8.778;2023-09-19T16:20:20;21.00;61.20
24678;DHT22;12800;53.094;8.778;2023-09-19T16:22:48;21.00;61.20
24678;DHT22;12800;53.094;8.778;2023-09-19T16:25:14;21.00;61.10
24678;DHT22;12800;53.094;8.778;2023-09-19T16:27:39;21.10;62.10
24678;DHT22;12800;53.094;8.778;2023-09-19T16:30:06;21.00;61.10
24678;DHT22;12800;53.094;8.778;2023-09-19T16:32:35;21.10;61.20
24678;DHT22;12800;53.094;8.778;2023-09-19T16:35:01;21.10;61.00